Time;durP1;ratioP1;P1;durP2;ratioP2;P2;SDS_P1;SDS_P2;PMS_P1;PMS_P2;Temp;Humidity;BMP_temperature;BMP_pressure;BME280_temperature;BME280_humidity;BME280_pressure;Samples;Min_cycle;Max_cycle;Signal;HPM_P1;HPM_P2
2023/03/22 00:00:36;;;;;;;24.57;13.40;;;9.30;1.00;;;;;;5034229;28;20499;-49
2023/03/22 00:03:05;;;;;;;21.80;14.23;;;9.30;1.00;;;;;;5033720;28;20784;-49
2023/03/22 00:05:31;;;;;;;21.13;13.53;;;9.30;1.00;;;;;;5034167;28;20418;-50
2023/03/22 00:07:57;;;;;;;22.47;14.00;;;9.40;99.90;;;;;;5033845;28;20416;-49
2023/03/22 00:10:24;;;;;;;21.20;14.87;;;9.40;99.90;;;;;;5033912;28;20478;-49
2023/03/22 00:12:51;;;;;;;21.20;14.63;;;9.40;99.90;;;;;;5034114;28;20244;-49
2023/03/22 00:15:16;;;;;;;19.97;13.67;;;9.40;99.90;;;;;;5033782;28;20468;-48
2023/03/22 00:17:43;;;;;;;25.17;14.57;;;9.40;99.90;;;;;;5034037;28;20472;-49
2023/03/22 00:20:10;;;;;;;21.20;13.83;;;9.40;99.90;;;;;;5033819;28;20637;-48
2023/03/22 00:22:36;;;;;;;23.13;14.73;;;9.40;99.90;;;;;;5033783;28;20413;-49
2023/03/22 00:25:02;;;;;;;21.77;14.20;;;9.40;99.90;;;;;;5033908;28;20455;-49
2023/03/22 00:27:27;;;;;;;27.23;15.67;;;9.40;99.90;;;;;;5033662;28;20751;-49
2023/03/22 00:29:53;;;;;;;26.80;14.13;;;9.40;99.90;;;;;;5033360;28;20187;-49
2023/03/22 00:32:19;;;;;;;23.50;16.17;;;9.40;99.90;;;;;;5032584;28;20182;-48
2023/03/22 00:34:45;;;;;;;25.00;15.63;;;9.40;99.90;;;;;;5033551;28;20209;-48
2023/03/22 00:37:10;;;;;;;21.43;14.80;;;9.30;1.00;;;;;;5033126;28;20186;-48
2023/03/22 00:39:36;;;;;;;32.07;15.80;;;9.40;1.00;;;;;;5033263;28;20188;-49
2023/03/22 00:42:04;;;;;;;22.40;15.20;;;9.40;1.00;;;;;;5033297;28;20652;-48
2023/03/22 00:44:30;;;;;;;25.07;15.27;;;9.50;1.00;;;;;;5033595;28;20252;-48
2023/03/22 00:46:56;;;;;;;20.60;14.97;;;9.50;1.00;;;;;;5033446;28;20467;-48
2023/03/22 00:49:21;;;;;;;25.27;15.90;;;9.40;99.90;;;;;;5033209;28;20174;-48
2023/03/22 00:51:47;;;;;;;24.87;16.73;;;9.40;99.90;;;;;;5033417;28;20186;-48
2023/03/22 00:54:12;;;;;;;23.70;16.07;;;9.50;1.00;;;;;;5033161;28;20217;-48
2023/03/22 00:56:38;;;;;;;21.80;15.00;;;9.50;99.90;;;;;;5033198;28;20185;-48
2023/03/22 00:59:04;;;;;;;28.73;16.43;;;9.40;99.90;;;;;;5033171;28;20193;-49
2023/03/22 01:01:29;;;;;;;29.93;17.07;;;9.40;1.00;;;;;;5033306;28;20193;-49
2023/03/22 01:03:55;;;;;;;23.83;16.53;;;9.50;1.00;;;;;;5033332;28;20935;-48
2023/03/22 01:06:21;;;;;;;26.50;17.30;;;9.40;99.90;;;;;;5033731;28;20189;-48
2023/03/22 01:08:49;;;;;;;25.53;16.00;;;9.50;1.00;;;;;;5033024;28;20186;-49
2023/03/22 01:11:16;;;;;;;29.50;17.90;;;9.50;1.00;;;;;;5033289;28;20190;-49
2023/03/22 01:13:42;;;;;;;26.27;16.73;;;9.60;99.90;;;;;;5033189;28;20440;-48
2023/03/22 01:16:08;;;;;;;24.83;15.93;;;9.60;99.90;;;;;;5033702;28;20417;-48
2023/03/22 01:18:34;;;;;;;28.10;17.77;;;9.50;99.90;;;;;;5033240;28;20542;-48
2023/03/22 01:21:01;;;;;;;30.47;17.60;;;9.60;99.90;;;;;;5032755;28;20912;-48
2023/03/22 01:23:27;;;;;;;30.47;18.30;;;9.60;99.90;;;;;;5033407;28;20418;-48
2023/03/22 01:25:52;;;;;;;24.10;17.03;;;9.60;99.90;;;;;;5033033;28;20429;-48
2023/03/22 01:28:18;;;;;;;27.67;17.47;;;9.60;99.90;;;;;;5033104;28;20936;-48
2023/03/22 01:30:43;;;;;;;30.10;17.90;;;9.60;99.90;;;;;;5032596;28;20249;-49
2023/03/22 01:33:09;;;;;;;27.17;18.30;;;9.60;99.90;;;;;;5032845;28;20199;-48
2023/03/22 01:35:36;;;;;;;28.10;17.83;;;9.60;99.90;;;;;;5032650;28;20209;-48
2023/03/22 01:38:01;;;;;;;24.40;17.10;;;9.70;99.90;;;;;;5033189;28;20201;-48
2023/03/22 01:40:28;;;;;;;26.00;17.00;;;9.70;99.90;;;;;;5032963;28;20500;-49
2023/03/22 01:42:54;;;;;;;27.63;17.80;;;9.80;99.90;;;;;;5034479;28;20190;-48
2023/03/22 01:45:42;;;;;;;27.90;18.23;;;9.70;99.90;;;;;;5036457;28;20405;-48
2023/03/22 01:48:14;;;;;;;26.10;17.60;;;9.70;99.90;;;;;;5036480;28;20412;-48
2023/03/22 01:50:43;;;;;;;23.87;17.37;;;9.70;99.90;;;;;;5036491;28;20432;-48
2023/03/22 01:53:12;;;;;;;25.20;18.17;;;9.70;99.90;;;;;;5036270;28;20451;-49
2023/03/22 01:55:38;;;;;;;31.53;18.40;;;9.70;99.90;;;;;;5036017;28;21009;-49
2023/03/22 01:58:04;;;;;;;32.10;17.70;;;9.80;99.90;;;;;;5036131;28;20490;-49
2023/03/22 02:00:31;;;;;;;25.73;17.37;;;9.80;99.90;;;;;;5036289;28;20416;-49
2023/03/22 02:02:57;;;;;;;27.03;19.73;;;9.80;99.90;;;;;;5036158;28;20196;-49
2023/03/22 02:05:24;;;;;;;30.07;18.30;;;9.80;99.90;;;;;;5035934;28;20516;-49
2023/03/22 02:07:50;;;;;;;29.80;17.73;;;9.80;99.90;;;;;;5036013;28;20186;-49
2023/03/22 02:10:20;;;;;;;27.30;17.83;;;9.80;99.90;;;;;;5035804;28;20409;-49
2023/03/22 02:13:06;;;;;;;25.90;17.50;;;9.80;99.90;;;;;;5036128;28;20413;-49
2023/03/22 02:15:38;;;;;;;23.90;17.53;;;9.90;99.90;;;;;;5035727;28;20448;-49
2023/03/22 02:18:37;;;;;;;29.03;18.60;;;9.80;99.90;;;;;;5035965;28;20436;-48
2023/03/22 02:21:24;;;;;;;27.57;17.93;;;9.80;99.90;;;;;;5035894;28;20409;-49
2023/03/22 02:24:17;;;;;;;27.40;17.90;;;9.70;99.90;;;;;;5035873;28;20488;-50
2023/03/22 02:27:24;;;;;;;25.97;17.63;;;9.80;99.90;;;;;;5035751;28;20479;-49
2023/03/22 02:30:33;;;;;;;27.23;16.70;;;9.70;99.90;;;;;;5035604;28;20435;-50
2023/03/22 02:33:37;;;;;;;23.43;16.97;;;9.70;99.90;;;;;;5035544;28;20448;-50
2023/03/22 02:36:18;;;;;;;29.03;17.40;;;9.80;99.90;;;;;;5035376;28;20459;-50
2023/03/22 02:39:03;;;;;;;29.70;17.43;;;9.80;99.90;;;;;;5035183;28;20868;-49
2023/03/22 02:41:47;;;;;;;26.00;17.50;;;9.80;99.90;;;;;;5035700;28;20459;-49
2023/03/22 02:44:18;;;;;;;27.43;17.03;;;9.90;99.90;;;;;;5035104;28;20484;-49
2023/03/22 02:46:55;;;;;;;21.87;16.70;;;9.90;99.90;;;;;;5035061;28;20405;-50
2023/03/22 02:49:29;;;;;;;27.07;16.20;;;10.00;99.90;;;;;;5035408;28;20900;-49
2023/03/22 02:52:17;;;;;;;26.77;16.57;;;10.00;70.50;;;;;;5035050;28;20900;-50
2023/03/22 02:54:51;;;;;;;24.63;16.00;;;10.10;3.40;;;;;;5034194;28;20461;-49
2023/03/22 02:57:32;;;;;;;25.07;17.57;;;10.10;9.60;;;;;;5034820;28;20416;-49
2023/03/22 03:00:00;;;;;;;23.90;16.40;;;10.10;1.00;;;;;;5034702;28;20409;-49
2023/03/22 03:02:29;;;;;;;25.67;16.43;;;10.10;1.00;;;;;;5035370;28;20413;-49
2023/03/22 03:04:55;;;;;;;28.30;18.13;;;10.00;1.00;;;;;;5035223;28;20424;-49
2023/03/22 03:07:25;;;;;;;24.77;17.00;;;10.10;1.00;;;;;;5035194;28;20425;-49
2023/03/22 03:09:51;;;;;;;26.70;16.70;;;10.10;1.00;;;;;;5035203;28;20519;-49
2023/03/22 03:12:20;;;;;;;24.53;15.77;;;10.20;1.00;;;;;;5034821;28;20425;-49
2023/03/22 03:14:46;;;;;;;23.93;15.27;;;10.10;1.00;;;;;;5034800;28;20457;-49
2023/03/22 03:17:36;;;;;;;25.57;15.50;;;10.10;1.00;;;;;;5034420;28;20479;-49
2023/03/22 03:20:33;;;;;;;25.13;15.27;;;10.20;1.00;;;;;;5034439;28;20185;-50
2023/03/22 03:23:20;;;;;;;26.07;14.57;;;10.20;99.90;;;;;;5026632;28;20439;-49
2023/03/22 03:25:46;;;;;;;22.90;14.90;;;10.20;99.90;;;;;;5034536;28;20435;-49
2023/03/22 03:28:37;;;;;;;21.70;14.50;;;10.20;99.90;;;;;;5034584;28;20413;-49
2023/03/22 03:31:12;;;;;;;23.13;15.00;;;10.20;99.90;;;;;;5034661;28;20190;-49
2023/03/22 03:33:46;;;;;;;26.70;15.87;;;10.20;99.90;;;;;;5034421;28;20416;-49
2023/03/22 03:36:15;;;;;;;21.40;14.27;;;10.10;99.90;;;;;;5034143;28;20448;-49
2023/03/22 03:38:45;;;;;;;22.70;15.97;;;10.10;99.90;;;;;;5034209;28;20427;-49
2023/03/22 03:41:15;;;;;;;20.83;14.70;;;10.10;99.90;;;;;;5034662;28;20413;-49
2023/03/22 03:43:42;;;;;;;24.27;14.90;;;10.10;99.90;;;;;;5034430;28;20522;-49
2023/03/22 03:46:08;;;;;;;22.17;15.10;;;10.10;99.90;;;;;;5034428;28;20424;-50
2023/03/22 03:48:36;;;;;;;20.47;15.00;;;10.10;99.90;;;;;;5034156;28;20413;-49
2023/03/22 03:51:02;;;;;;;23.70;15.67;;;10.10;99.90;;;;;;5033928;28;20185;-49
2023/03/22 03:53:29;;;;;;;20.60;15.37;;;10.00;1.00;;;;;;5034068;28;20421;-49
2023/03/22 03:55:55;;;;;;;23.00;14.77;;;10.00;1.00;;;;;;5034068;28;20466;-49
2023/03/22 03:58:20;;;;;;;26.17;14.70;;;10.00;1.00;;;;;;5034089;28;20854;-49
2023/03/22 04:00:47;;;;;;;22.93;15.60;;;10.00;1.00;;;;;;5034081;28;20193;-49
2023/03/22 04:03:13;;;;;;;21.77;14.13;;;10.00;99.90;;;;;;5034058;28;20700;-49
2023/03/22 04:05:39;;;;;;;24.07;15.30;;;10.00;99.90;;;;;;5033516;28;20432;-50
2023/03/22 04:08:05;;;;;;;20.43;14.43;;;10.00;99.90;;;;;;5033892;28;20413;-49
2023/03/22 04:10:31;;;;;;;22.03;14.43;;;10.00;99.90;;;;;;5033771;28;20566;-49
2023/03/22 04:12:56;;;;;;;18.80;13.80;;;10.00;99.90;;;;;;5033904;28;20913;-50
2023/03/22 04:15:23;;;;;;;22.53;15.03;;;10.00;99.90;;;;;;5034116;28;20584;-49
2023/03/22 04:17:48;;;;;;;20.40;14.87;;;9.90;99.90;;;;;;5033766;28;20644;-49
2023/03/22 04:20:14;;;;;;;22.63;14.20;;;10.00;1.00;;;;;;5034156;28;20499;-49
2023/03/22 04:22:40;;;;;;;19.50;13.87;;;9.90;1.00;;;;;;5033539;28;20544;-50
2023/03/22 04:25:11;;;;;;;22.47;13.97;;;10.00;1.00;;;;;;5033648;28;20773;-49
2023/03/22 04:27:38;;;;;;;20.83;13.03;;;10.00;1.00;;;;;;5033889;28;20401;-49
2023/03/22 04:30:09;;;;;;;22.53;14.20;;;10.00;99.90;;;;;;5033449;28;20433;-49
2023/03/22 04:32:34;;;;;;;17.60;13.67;;;10.00;99.90;;;;;;5033418;28;20936;-49
2023/03/22 04:35:00;;;;;;;22.50;13.60;;;10.00;99.90;;;;;;5033439;28;20571;-49
2023/03/22 04:37:26;;;;;;;21.63;12.40;;;10.00;99.90;;;;;;5033260;28;20185;-49
2023/03/22 04:39:52;;;;;;;22.87;14.20;;;10.00;99.90;;;;;;5033469;28;20189;-49
2023/03/22 04:42:18;;;;;;;21.47;13.43;;;10.00;99.90;;;;;;5033441;28;20194;-49
2023/03/22 04:44:43;;;;;;;25.10;13.57;;;10.00;99.90;;;;;;5033056;28;20481;-49
2023/03/22 04:47:09;;;;;;;18.23;13.43;;;10.00;99.90;;;;;;5033640;28;20189;-50
2023/03/22 04:49:34;;;;;;;19.90;13.07;;;10.00;99.90;;;;;;5033085;28;20186;-49
2023/03/22 04:52:00;;;;;;;21.50;12.40;;;10.00;99.90;;;;;;5033507;28;20193;-49
2023/03/22 04:54:26;;;;;;;22.30;12.87;;;10.00;99.90;;;;;;5033095;28;20686;-49
2023/03/22 04:56:51;;;;;;;25.97;13.57;;;10.00;99.90;;;;;;5033326;28;20236;-49
2023/03/22 04:59:19;;;;;;;20.73;13.63;;;10.00;99.90;;;;;;5033350;28;20193;-49
2023/03/22 05:01:46;;;;;;;22.77;13.87;;;10.00;99.90;;;;;;5033117;28;20620;-49
2023/03/22 05:04:11;;;;;;;19.17;12.70;;;9.90;99.90;;;;;;5033425;28;20469;-49
2023/03/22 05:06:37;;;;;;;19.30;12.77;;;9.90;99.90;;;;;;5033143;28;20412;-48
2023/03/22 05:09:04;;;;;;;21.93;13.20;;;9.90;99.90;;;;;;5033291;28;20428;-49
2023/03/22 05:11:30;;;;;;;20.77;13.00;;;9.90;99.90;;;;;;5033144;28;20186;-49
2023/03/22 05:13:56;;;;;;;23.13;13.00;;;9.90;99.90;;;;;;5032920;28;20483;-50
2023/03/22 05:16:23;;;;;;;17.43;12.47;;;9.90;99.90;;;;;;5033173;28;20194;-49
2023/03/22 05:18:53;;;;;;;20.23;12.47;;;10.00;99.90;;;;;;5036455;28;20907;-49
2023/03/22 05:21:27;;;;;;;22.27;12.13;;;10.00;99.90;;;;;;5036949;28;20425;-49
2023/03/22 05:23:54;;;;;;;20.97;11.83;;;10.10;99.90;;;;;;5037115;28;20417;-49
2023/03/22 05:26:23;;;;;;;19.40;13.60;;;10.00;99.90;;;;;;5037194;28;20412;-48
2023/03/22 05:28:49;;;;;;;20.40;11.70;;;10.00;95.50;;;;;;5036721;28;20904;-49
2023/03/22 05:31:15;;;;;;;15.43;11.87;;;10.00;90.70;;;;;;5037114;28;20504;-48
2023/03/22 05:33:42;;;;;;;19.10;12.00;;;10.00;99.90;;;;;;5036948;28;20448;-49
2023/03/22 05:36:08;;;;;;;19.73;12.30;;;10.00;99.90;;;;;;5036180;28;20421;-49
2023/03/22 05:38:33;;;;;;;16.87;11.70;;;10.00;99.90;;;;;;5036793;28;20828;-49
2023/03/22 05:40:59;;;;;;;21.20;12.60;;;10.00;88.50;;;;;;5036509;28;20416;-50
2023/03/22 05:43:25;;;;;;;18.27;12.37;;;10.00;99.90;;;;;;5036271;28;20240;-48
2023/03/22 05:45:50;;;;;;;15.40;10.33;;;10.10;43.70;;;;;;5036203;28;20533;-49
2023/03/22 05:48:16;;;;;;;19.20;11.93;;;10.10;1.00;;;;;;5036547;28;20255;-48
2023/03/22 05:50:42;;;;;;;19.57;12.07;;;10.00;9.80;;;;;;5036424;28;20562;-48
2023/03/22 05:53:07;;;;;;;15.80;11.30;;;10.10;1.00;;;;;;5036232;28;20190;-48
2023/03/22 05:55:33;;;;;;;16.13;11.37;;;10.10;1.00;;;;;;5036295;28;20206;-49
2023/03/22 05:58:00;;;;;;;18.90;10.93;;;10.10;1.00;;;;;;5035746;28;20226;-49
2023/03/22 06:00:27;;;;;;;14.23;9.93;;;10.10;1.00;;;;;;5036390;28;20186;-48
2023/03/22 06:02:55;;;;;;;14.57;10.03;;;10.20;1.00;;;;;;5036330;28;20486;-48
2023/03/22 06:05:22;;;;;;;18.77;10.47;;;10.20;99.90;;;;;;5036170;28;20467;-49
2023/03/22 06:07:47;;;;;;;17.53;10.60;;;10.20;99.90;;;;;;5035981;28;20424;-49
2023/03/22 06:10:14;;;;;;;20.23;9.80;;;10.30;99.90;;;;;;5036171;28;20421;-49
2023/03/22 06:12:40;;;;;;;20.03;9.87;;;10.30;99.90;;;;;;5036070;28;20190;-49
2023/03/22 06:15:07;;;;;;;16.27;10.13;;;10.30;21.20;;;;;;5035569;28;20944;-50
2023/03/22 06:17:33;;;;;;;16.17;9.93;;;10.30;1.00;;;;;;5035885;28;20433;-50
2023/03/22 06:19:59;;;;;;;12.77;9.63;;;10.40;1.00;;;;;;5036032;28;20433;-49
2023/03/22 06:22:25;;;;;;;14.50;9.90;;;10.40;1.00;;;;;;5036264;28;20413;-48
2023/03/22 06:24:50;;;;;;;18.83;10.30;;;10.40;1.00;;;;;;5035886;28;20553;-49
2023/03/22 06:27:16;;;;;;;15.67;9.77;;;10.50;1.00;;;;;;5035467;28;20837;-49
2023/03/22 06:29:43;;;;;;;16.90;9.70;;;10.50;99.90;;;;;;5035913;28;20193;-49
2023/03/22 06:32:09;;;;;;;16.30;9.73;;;10.50;99.90;;;;;;5035378;28;20409;-50
2023/03/22 06:34:35;;;;;;;21.40;10.23;;;10.70;57.80;;;;;;5035283;28;20468;-49
2023/03/22 06:37:00;;;;;;;18.47;11.20;;;10.70;1.00;;;;;;5035592;28;20428;-49
2023/03/22 06:39:26;;;;;;;17.70;9.87;;;10.80;99.90;;;;;;5035486;28;20240;-49
2023/03/22 06:41:51;;;;;;;16.20;9.60;;;10.80;99.90;;;;;;5035249;28;20369;-50
2023/03/22 06:44:18;;;;;;;20.47;10.20;;;10.90;99.90;;;;;;5035019;28;20263;-50
2023/03/22 06:46:43;;;;;;;13.20;9.50;;;10.90;99.90;;;;;;5035249;28;20194;-49
2023/03/22 06:49:09;;;;;;;22.63;8.90;;;10.90;99.90;;;;;;5033848;28;20441;-49
2023/03/22 06:51:35;;;;;;;16.97;9.10;;;11.00;99.90;;;;;;5035231;28;20541;-50
2023/03/22 06:54:00;;;;;;;17.60;8.63;;;11.00;1.00;;;;;;5035008;28;20178;-51
2023/03/22 06:56:26;;;;;;;16.83;9.53;;;11.00;1.00;;;;;;5033900;28;20623;-50
2023/03/22 06:58:53;;;;;;;19.57;8.67;;;11.00;99.90;;;;;;5035462;28;20193;-49
2023/03/22 07:01:20;;;;;;;12.63;9.10;;;11.00;1.00;;;;;;5035093;28;20187;-50
2023/03/22 07:03:45;;;;;;;13.73;8.20;;;11.00;99.90;;;;;;5035267;28;20424;-50
2023/03/22 07:06:11;;;;;;;16.10;8.80;;;11.00;1.00;;;;;;5034921;28;20421;-50
2023/03/22 07:08:37;;;;;;;16.33;8.80;;;11.00;99.90;;;;;;5035063;28;20190;-50
2023/03/22 07:11:04;;;;;;;17.43;9.20;;;11.10;99.90;;;;;;5034757;28;20572;-50
2023/03/22 07:13:29;;;;;;;21.07;9.13;;;11.10;99.90;;;;;;5035149;28;20231;-49
2023/03/22 07:15:56;;;;;;;15.60;9.03;;;11.20;1.00;;;;;;5034743;28;21031;-50
2023/03/22 07:18:22;;;;;;;12.93;8.73;;;11.10;1.00;;;;;;5035041;28;20189;-50
2023/03/22 07:20:48;;;;;;;14.53;9.00;;;11.20;1.00;;;;;;5034562;28;20893;-50
2023/03/22 07:23:15;;;;;;;20.07;9.20;;;11.30;99.90;;;;;;5034815;28;20413;-49
2023/03/22 07:25:41;;;;;;;14.50;9.30;;;11.30;1.00;;;;;;5034967;28;20189;-49
2023/03/22 07:28:09;;;;;;;15.87;9.80;;;11.40;99.90;;;;;;5034682;28;20612;-50
2023/03/22 07:30:36;;;;;;;16.60;8.80;;;11.40;1.00;;;;;;5034646;28;20478;-50
2023/03/22 07:33:02;;;;;;;21.07;10.00;;;11.40;68.40;;;;;;5034340;28;20485;-50
2023/03/22 07:35:29;;;;;;;17.10;11.80;;;11.50;94.40;;;;;;5034076;28;20477;-50
2023/03/22 07:37:55;;;;;;;20.17;10.90;;;11.50;1.00;;;;;;5034156;28;20420;-50
2023/03/22 07:40:21;;;;;;;18.27;10.27;;;11.50;1.00;;;;;;5034046;28;20482;-50
2023/03/22 07:42:48;;;;;;;22.83;12.00;;;11.60;39.00;;;;;;5034073;28;20201;-50
2023/03/22 07:45:14;;;;;;;16.30;10.90;;;11.70;1.00;;;;;;5034035;28;20847;-50
2023/03/22 07:47:39;;;;;;;16.80;11.47;;;11.70;1.00;;;;;;5034147;28;20433;-50
2023/03/22 07:50:06;;;;;;;15.77;11.67;;;11.80;1.00;;;;;;5034091;28;20186;-50
2023/03/22 07:52:31;;;;;;;19.00;12.17;;;11.80;1.00;;;;;;5034090;28;20186;-50
2023/03/22 07:54:57;;;;;;;17.57;11.20;;;11.90;99.90;;;;;;5033695;28;20460;-50
2023/03/22 07:57:22;;;;;;;18.10;12.10;;;12.00;1.00;;;;;;5034077;28;20186;-51
2023/03/22 07:59:48;;;;;;;17.23;11.70;;;12.00;99.90;;;;;;5034210;28;20729;-49
2023/03/22 08:02:14;;;;;;;23.90;12.17;;;12.00;1.00;;;;;;5033975;28;20178;-49
2023/03/22 08:04:40;;;;;;;20.40;12.57;;;12.00;1.00;;;;;;5034232;28;20190;-49
2023/03/22 08:07:08;;;;;;;18.60;11.60;;;11.90;1.00;;;;;;5034010;28;20413;-50
2023/03/22 08:09:35;;;;;;;22.07;12.63;;;11.90;1.00;;;;;;5034260;28;20456;-50
2023/03/22 08:12:00;;;;;;;26.10;12.50;;;12.00;99.90;;;;;;5033778;28;20911;-49
2023/03/22 08:14:26;;;;;;;19.00;13.00;;;12.00;1.00;;;;;;5033709;28;20548;-50
2023/03/22 08:16:52;;;;;;;18.93;12.70;;;12.10;99.90;;;;;;5034051;28;20650;-49
2023/03/22 08:19:17;;;;;;;17.63;11.87;;;12.20;99.90;;;;;;5033960;28;20679;-49
2023/03/22 08:21:43;;;;;;;18.33;12.47;;;12.20;99.90;;;;;;5033725;28;20182;-50
2023/03/22 08:24:08;;;;;;;21.53;12.53;;;12.30;74.70;;;;;;5033769;28;20196;-49
2023/03/22 08:26:34;;;;;;;20.67;13.27;;;12.30;1.00;;;;;;5033764;28;20206;-49
2023/03/22 08:29:00;;;;;;;23.10;12.40;;;12.40;1.00;;;;;;5033441;28;20277;-50
2023/03/22 08:31:26;;;;;;;21.17;12.67;;;12.50;99.90;;;;;;5033961;28;20516;-51
2023/03/22 08:33:51;;;;;;;24.03;12.73;;;12.60;77.70;;;;;;5033494;28;20182;-50
2023/03/22 08:36:21;;;;;;;21.70;12.07;;;12.60;43.40;;;;;;5033354;28;20233;-50
2023/03/22 08:38:47;;;;;;;21.10;11.53;;;12.60;28.30;;;;;;5033699;28;20240;-50
2023/03/22 08:41:14;;;;;;;19.27;11.70;;;12.90;15.50;;;;;;5033181;28;20936;-50
2023/03/22 08:43:40;;;;;;;15.70;10.87;;;13.50;1.00;;;;;;5032933;28;20473;-50
2023/03/22 08:46:06;;;;;;;21.93;10.10;;;13.80;1.00;;;;;;5033403;28;20430;-51
2023/03/22 08:48:33;;;;;;;15.37;10.37;;;14.60;1.00;;;;;;5033463;28;20803;-50
2023/03/22 08:51:00;;;;;;;14.77;10.20;;;15.40;1.00;;;;;;5033260;28;20198;-50
2023/03/22 08:53:26;;;;;;;12.43;9.10;;;14.90;1.00;;;;;;5036397;28;20474;-51
2023/03/22 08:55:53;;;;;;;14.83;9.47;;;14.20;1.00;;;;;;5037575;28;20471;-50
2023/03/22 08:58:19;;;;;;;16.83;9.73;;;13.90;1.00;;;;;;5037549;28;20202;-49
2023/03/22 09:00:45;;;;;;;17.60;9.47;;;14.10;1.00;;;;;;5037312;28;20435;-50
2023/03/22 09:03:11;;;;;;;14.03;9.70;;;14.40;1.00;;;;;;5037636;28;20482;-51
2023/03/22 09:05:37;;;;;;;13.13;9.43;;;14.70;1.00;;;;;;5036868;28;20433;-50
2023/03/22 09:08:04;;;;;;;14.20;8.93;;;14.80;1.00;;;;;;5037060;28;20185;-50
2023/03/22 09:10:30;;;;;;;12.70;8.97;;;14.90;1.00;;;;;;5037457;28;20183;-51
2023/03/22 09:12:56;;;;;;;14.40;10.30;;;15.00;1.00;;;;;;5036900;28;20482;-51
2023/03/22 09:15:21;;;;;;;14.37;8.60;;;15.40;1.00;;;;;;5037304;28;20460;-50
2023/03/22 09:17:47;;;;;;;14.80;9.20;;;15.40;1.00;;;;;;5036855;28;20198;-50
2023/03/22 09:20:13;;;;;;;15.47;9.20;;;15.20;1.00;;;;;;5037020;28;20189;-50
2023/03/22 09:22:39;;;;;;;13.00;8.30;;;15.00;1.00;;;;;;5036898;28;20193;-50
2023/03/22 09:25:05;;;;;;;13.00;7.80;;;15.10;1.00;;;;;;5036942;28;20189;-50
2023/03/22 09:27:30;;;;;;;14.37;8.93;;;15.00;1.00;;;;;;5036715;28;20444;-50
2023/03/22 09:29:56;;;;;;;15.90;8.20;;;14.90;1.00;;;;;;5036806;28;20872;-50
2023/03/22 09:32:21;;;;;;;13.00;7.60;;;14.80;1.00;;;;;;5036736;28;20192;-50
2023/03/22 09:34:47;;;;;;;16.53;8.40;;;14.50;1.00;;;;;;5036377;28;20210;-51
2023/03/22 09:37:13;;;;;;;14.73;8.23;;;14.40;1.00;;;;;;5036833;28;20651;-50
2023/03/22 09:39:40;;;;;;;13.43;7.50;;;14.40;1.00;;;;;;5036608;28;20534;-51
2023/03/22 09:42:15;;;;;;;12.23;8.07;;;14.30;1.00;;;;;;5036266;28;20511;-50
2023/03/22 09:44:44;;;;;;;13.90;7.50;;;14.10;1.00;;;;;;5036335;28;20530;-50
2023/03/22 09:47:30;;;;;;;13.27;8.00;;;13.90;1.00;;;;;;5036509;28;20504;-50
2023/03/22 09:50:04;;;;;;;10.10;7.47;;;13.90;1.00;;;;;;5036768;28;20489;-50
2023/03/22 09:52:29;;;;;;;16.80;7.50;;;13.90;1.00;;;;;;5036669;28;20420;-50
2023/03/22 09:54:55;;;;;;;14.43;6.77;;;13.90;1.00;;;;;;5036403;28;20456;-50
2023/03/22 09:57:20;;;;;;;11.90;6.50;;;13.90;1.00;;;;;;5036173;28;20182;-50
2023/03/22 09:59:57;;;;;;;14.33;6.90;;;13.90;1.00;;;;;;5036225;28;20567;-50
2023/03/22 10:02:44;;;;;;;17.00;6.27;;;14.10;1.00;;;;;;5036206;28;20166;-51
2023/03/22 10:05:34;;;;;;;13.03;5.87;;;14.20;1.00;;;;;;5036385;28;20452;-50
2023/03/22 10:08:09;;;;;;;11.17;5.87;;;13.90;1.00;;;;;;5035956;28;20421;-50
2023/03/22 10:10:36;;;;;;;10.47;5.93;;;13.90;1.00;;;;;;5036112;28;20804;-50
2023/03/22 10:13:22;;;;;;;13.53;5.37;;;14.00;1.00;;;;;;5035859;28;20440;-50
2023/03/22 10:15:51;;;;;;;11.67;6.50;;;14.00;1.00;;;;;;5036096;28;20456;-50
2023/03/22 10:18:19;;;;;;;9.63;5.37;;;14.10;1.00;;;;;;5036180;28;20425;-50
2023/03/22 10:20:52;;;;;;;10.20;5.50;;;14.00;1.00;;;;;;5035590;28;20500;-50
2023/03/22 10:23:30;;;;;;;7.70;4.43;;;13.90;1.00;;;;;;5035847;28;20409;-50
2023/03/22 10:25:57;;;;;;;9.00;4.87;;;13.80;1.00;;;;;;5035814;28;20810;-50
2023/03/22 10:28:30;;;;;;;8.20;4.70;;;13.80;1.00;;;;;;5035339;28;20425;-51
2023/03/22 10:30:56;;;;;;;9.50;4.27;;;13.80;1.00;;;;;;5035594;28;20551;-51
2023/03/22 10:33:37;;;;;;;10.83;4.40;;;13.80;1.00;;;;;;5035410;28;20948;-50
2023/03/22 10:36:11;;;;;;;11.77;4.83;;;13.80;1.00;;;;;;5035430;28;20448;-51
2023/03/22 10:38:44;;;;;;;7.60;4.27;;;13.80;1.00;;;;;;5035328;28;20904;-50
2023/03/22 10:41:12;;;;;;;7.40;4.47;;;13.80;1.00;;;;;;5035700;28;20406;-50
2023/03/22 10:43:39;;;;;;;9.07;4.03;;;13.90;1.00;;;;;;5035113;28;20476;-50
2023/03/22 10:46:11;;;;;;;8.27;4.60;;;13.90;1.00;;;;;;5035118;28;20428;-50
2023/03/22 10:48:42;;;;;;;12.77;4.50;;;14.00;1.00;;;;;;5035136;28;20398;-50
2023/03/22 10:51:18;;;;;;;9.57;4.27;;;14.20;1.00;;;;;;5035309;28;20409;-50
2023/03/22 10:53:48;;;;;;;12.33;4.03;;;14.30;1.00;;;;;;5035389;28;20413;-51
2023/03/22 10:56:18;;;;;;;7.30;3.70;;;14.30;1.00;;;;;;5035169;28;20453;-50
2023/03/22 10:58:44;;;;;;;8.73;4.83;;;14.30;1.00;;;;;;5035315;28;20428;-51
2023/03/22 11:01:13;;;;;;;8.57;3.87;;;14.20;1.00;;;;;;5034895;28;20428;-50
2023/03/22 11:03:41;;;;;;;7.10;3.53;;;14.20;1.00;;;;;;5034882;28;20444;-50
2023/03/22 11:06:11;;;;;;;11.60;4.10;;;14.20;1.00;;;;;;5035115;28;20515;-50
2023/03/22 11:08:38;;;;;;;7.00;4.00;;;14.30;1.00;;;;;;5034944;28;20445;-50
2023/03/22 11:11:06;;;;;;;9.53;3.63;;;14.40;1.00;;;;;;5035149;28;20520;-50
2023/03/22 11:13:34;;;;;;;7.20;4.63;;;14.50;1.00;;;;;;5035269;28;20475;-50
2023/03/22 11:16:01;;;;;;;13.10;4.30;;;14.70;1.00;;;;;;5033975;28;20514;-51
2023/03/22 11:18:32;;;;;;;8.33;4.30;;;14.60;1.00;;;;;;5035096;28;20452;-50
2023/03/22 11:21:06;;;;;;;9.83;3.83;;;14.40;1.00;;;;;;5034935;28;20800;-49
2023/03/22 11:23:34;;;;;;;11.83;3.90;;;14.20;1.00;;;;;;5035141;28;20416;-50
2023/03/22 11:26:08;;;;;;;6.97;4.40;;;14.20;1.00;;;;;;5034329;28;20429;-50
2023/03/22 11:28:45;;;;;;;10.97;4.37;;;14.20;1.00;;;;;;5034885;28;20508;-49
2023/03/22 11:31:20;;;;;;;7.53;4.07;;;14.20;1.00;;;;;;5034532;28;20515;-50
2023/03/22 11:33:56;;;;;;;9.23;4.50;;;14.10;1.00;;;;;;5034544;28;20404;-49
2023/03/22 11:36:22;;;;;;;6.27;4.13;;;14.00;1.00;;;;;;5034799;28;20432;-50
2023/03/22 11:39:00;;;;;;;8.50;4.63;;;14.00;1.00;;;;;;5034283;28;20804;-50
2023/03/22 11:41:34;;;;;;;9.10;4.50;;;14.00;1.00;;;;;;5034259;28;20405;-50
2023/03/22 11:44:21;;;;;;;11.63;4.67;;;14.20;1.00;;;;;;5034027;28;20500;-50
2023/03/22 11:46:59;;;;;;;7.80;3.87;;;14.10;1.00;;;;;;5034250;28;20409;-50
2023/03/22 11:49:34;;;;;;;9.03;4.07;;;14.00;1.00;;;;;;5034333;28;20405;-51
2023/03/22 11:52:08;;;;;;;11.07;4.40;;;14.00;1.00;;;;;;5034269;28;20409;-50
2023/03/22 11:54:35;;;;;;;10.77;4.57;;;14.10;1.00;;;;;;5034038;28;20448;-51
2023/03/22 11:57:08;;;;;;;7.23;4.17;;;14.20;1.00;;;;;;5033959;28;20431;-51
2023/03/22 11:59:43;;;;;;;9.53;4.57;;;14.40;1.00;;;;;;5034083;28;20818;-50
2023/03/22 12:02:28;;;;;;;8.23;4.67;;;14.50;1.00;;;;;;5033683;28;20404;-51
2023/03/22 12:05:10;;;;;;;8.70;4.10;;;14.60;1.00;;;;;;5034037;28;20428;-50
2023/03/22 12:07:37;;;;;;;8.63;4.80;;;14.60;1.00;;;;;;5033861;28;20516;-50
2023/03/22 12:10:32;;;;;;;7.17;4.83;;;14.60;1.00;;;;;;5033987;28;20433;-50
2023/03/22 12:13:03;;;;;;;8.33;5.10;;;14.30;1.00;;;;;;5029408;28;20917;-50
2023/03/22 12:15:34;;;;;;;12.47;5.03;;;14.20;1.00;;;;;;5033549;28;20460;-51
2023/03/22 12:18:07;;;;;;;11.97;5.50;;;14.20;1.00;;;;;;5033926;28;20421;-52
2023/03/22 12:20:54;;;;;;;9.83;5.53;;;14.20;1.00;;;;;;5033496;28;20418;-51
2023/03/22 12:23:26;;;;;;;9.23;4.80;;;14.20;1.00;;;;;;5033797;28;20439;-48
2023/03/22 12:25:57;;;;;;;7.77;5.07;;;14.30;1.00;;;;;;5033468;28;20418;-49
2023/03/22 12:28:31;;;;;;;7.80;5.37;;;14.30;1.00;;;;;;5033611;28;20810;-50
2023/03/22 12:30:58;;;;;;;10.20;5.60;;;14.20;1.00;;;;;;5033895;28;20847;-51
2023/03/22 12:33:31;;;;;;;8.63;5.10;;;14.10;1.00;;;;;;5033829;28;20473;-50
2023/03/22 12:36:10;;;;;;;12.03;6.63;;;14.00;1.00;;;;;;5033758;28;20536;-49
2023/03/22 12:39:05;;;;;;;8.27;5.50;;;14.00;1.00;;;;;;5033129;28;20416;-49
2023/03/22 12:41:39;;;;;;;7.33;5.80;;;14.00;1.00;;;;;;5032622;28;20441;-48
2023/03/22 12:44:22;;;;;;;6.20;5.50;;;14.00;1.00;;;;;;5033020;28;20488;-49
2023/03/22 12:46:56;;;;;;;9.37;6.00;;;14.00;1.00;;;;;;5032739;28;20405;-50
2023/03/22 12:49:56;;;;;;;7.73;5.53;;;14.00;1.00;;;;;;5032704;28;20417;-49
2023/03/22 12:52:32;;;;;;;6.00;5.40;;;14.00;1.00;;;;;;5032565;28;20407;-49